sensor_id;sensor_type;location;lat;lon;timestamp;P1;durP1;ratioP1;P2;durP2;ratioP2
7166;SDS011;3625;51.762;14.320;2022-12-18T00:01:27;33.80;;;17.53;;
7166;SDS011;3625;51.762;14.320;2022-12-18T00:04:00;38.70;;;20.03;;
7166;SDS011;3625;51.762;14.320;2022-12-18T00:06:34;37.80;;;18.83;;
7166;SDS011;3625;51.762;14.320;2022-12-18T00:09:05;39.77;;;17.43;;
7166;SDS011;3625;51.762;14.320;2022-12-18T00:11:33;34.87;;;15.93;;
7166;SDS011;3625;51.762;14.320;2022-12-18T00:14:02;36.73;;;17.63;;
7166;SDS011;3625;51.762;14.320;2022-12-18T00:16:30;34.30;;;15.90;;
7166;SDS011;3625;51.762;14.320;2022-12-18T00:19:01;35.90;;;19.50;;
7166;SDS011;3625;51.762;14.320;2022-12-18T00:21:31;44.03;;;20.10;;
7166;SDS011;3625;51.762;14.320;2022-12-18T00:24:00;43.27;;;19.47;;
7166;SDS011;3625;51.762;14.320;2022-12-18T00:26:30;40.03;;;20.53;;
7166;SDS011;3625;51.762;14.320;2022-12-18T00:29:02;43.73;;;20.13;;
7166;SDS011;3625;51.762;14.320;2022-12-18T00:31:33;41.03;;;18.53;;
7166;SDS011;3625;51.762;14.320;2022-12-18T00:34:02;37.47;;;19.50;;
7166;SDS011;3625;51.762;14.320;2022-12-18T00:36:32;37.60;;;18.27;;
7166;SDS011;3625;51.762;14.320;2022-12-18T00:39:03;42.37;;;19.83;;
7166;SDS011;3625;51.762;14.320;2022-12-18T00:41:34;38.57;;;18.70;;
7166;SDS011;3625;51.762;14.320;2022-12-18T00:44:34;32.07;;;15.77;;
7166;SDS011;3625;51.762;14.320;2022-12-18T00:47:02;33.93;;;16.17;;
7166;SDS011;3625;51.762;14.320;2022-12-18T00:49:32;36.20;;;17.23;;
7166;SDS011;3625;51.762;14.320;2022-12-18T00:52:00;34.47;;;17.30;;
7166;SDS011;3625;51.762;14.320;2022-12-18T00:54:29;40.13;;;18.27;;
7166;SDS011;3625;51.762;14.320;2022-12-18T00:56:58;30.83;;;17.27;;
7166;SDS011;3625;51.762;14.320;2022-12-18T00:59:27;34.70;;;15.87;;
7166;SDS011;3625;51.762;14.320;2022-12-18T01:01:56;38.03;;;17.43;;
7166;SDS011;3625;51.762;14.320;2022-12-18T01:04:25;26.50;;;14.30;;
7166;SDS011;3625;51.762;14.320;2022-12-18T01:06:53;30.17;;;16.47;;
7166;SDS011;3625;51.762;14.320;2022-12-18T01:09:22;32.67;;;15.03;;
7166;SDS011;3625;51.762;14.320;2022-12-18T01:11:51;28.33;;;13.93;;
7166;SDS011;3625;51.762;14.320;2022-12-18T01:14:21;31.63;;;16.27;;
7166;SDS011;3625;51.762;14.320;2022-12-18T01:16:49;34.33;;;16.77;;
7166;SDS011;3625;51.762;14.320;2022-12-18T01:19:17;31.03;;;16.23;;
7166;SDS011;3625;51.762;14.320;2022-12-18T01:21:46;30.83;;;15.87;;
7166;SDS011;3625;51.762;14.320;2022-12-18T01:24:14;30.47;;;15.10;;
7166;SDS011;3625;51.762;14.320;2022-12-18T01:26:43;32.80;;;15.87;;
7166;SDS011;3625;51.762;14.320;2022-12-18T01:29:13;35.20;;;15.53;;
7166;SDS011;3625;51.762;14.320;2022-12-18T01:31:43;29.33;;;13.67;;
7166;SDS011;3625;51.762;14.320;2022-12-18T01:34:11;21.47;;;12.73;;
7166;SDS011;3625;51.762;14.320;2022-12-18T01:36:40;30.83;;;15.63;;
7166;SDS011;3625;51.762;14.320;2022-12-18T01:39:10;31.80;;;15.50;;
7166;SDS011;3625;51.762;14.320;2022-12-18T01:41:42;23.07;;;12.33;;
7166;SDS011;3625;51.762;14.320;2022-12-18T01:47:32;27.50;;;14.27;;
7166;SDS011;3625;51.762;14.320;2022-12-18T01:50:07;28.17;;;14.47;;
7166;SDS011;3625;51.762;14.320;2022-12-18T01:52:39;20.23;;;11.53;;
7166;SDS011;3625;51.762;14.320;2022-12-18T01:55:11;22.40;;;12.20;;
7166;SDS011;3625;51.762;14.320;2022-12-18T01:57:45;22.03;;;12.00;;
7166;SDS011;3625;51.762;14.320;2022-12-18T02:00:16;23.80;;;13.37;;
7166;SDS011;3625;51.762;14.320;2022-12-18T02:02:51;23.50;;;13.07;;
7166;SDS011;3625;51.762;14.320;2022-12-18T02:05:23;23.07;;;13.00;;
7166;SDS011;3625;51.762;14.320;2022-12-18T02:08:09;27.80;;;12.77;;
7166;SDS011;3625;51.762;14.320;2022-12-18T02:10:45;26.33;;;14.40;;
7166;SDS011;3625;51.762;14.320;2022-12-18T02:13:25;25.20;;;13.70;;
7166;SDS011;3625;51.762;14.320;2022-12-18T02:16:06;25.57;;;12.93;;
7166;SDS011;3625;51.762;14.320;2022-12-18T02:18:45;24.00;;;13.80;;
7166;SDS011;3625;51.762;14.320;2022-12-18T02:21:23;24.37;;;13.77;;
7166;SDS011;3625;51.762;14.320;2022-12-18T02:24:07;21.53;;;12.47;;
7166;SDS011;3625;51.762;14.320;2022-12-18T02:26:54;26.67;;;13.73;;
7166;SDS011;3625;51.762;14.320;2022-12-18T02:29:30;23.50;;;12.73;;
7166;SDS011;3625;51.762;14.320;2022-12-18T02:32:06;23.83;;;12.33;;
7166;SDS011;3625;51.762;14.320;2022-12-18T02:34:41;23.77;;;12.43;;
7166;SDS011;3625;51.762;14.320;2022-12-18T02:37:15;22.93;;;13.10;;
7166;SDS011;3625;51.762;14.320;2022-12-18T02:39:49;24.20;;;14.07;;
7166;SDS011;3625;51.762;14.320;2022-12-18T02:42:24;20.80;;;12.27;;
7166;SDS011;3625;51.762;14.320;2022-12-18T02:44:55;24.43;;;13.60;;
7166;SDS011;3625;51.762;14.320;2022-12-18T02:47:28;26.93;;;15.33;;
7166;SDS011;3625;51.762;14.320;2022-12-18T02:50:02;26.50;;;13.20;;
7166;SDS011;3625;51.762;14.320;2022-12-18T02:52:41;24.43;;;12.90;;
7166;SDS011;3625;51.762;14.320;2022-12-18T02:55:26;26.60;;;13.17;;
7166;SDS011;3625;51.762;14.320;2022-12-18T02:58:16;26.97;;;13.67;;
7166;SDS011;3625;51.762;14.320;2022-12-18T03:01:01;26.60;;;15.20;;
7166;SDS011;3625;51.762;14.320;2022-12-18T03:03:38;19.73;;;11.73;;
7166;SDS011;3625;51.762;14.320;2022-12-18T03:06:12;30.63;;;14.10;;
7166;SDS011;3625;51.762;14.320;2022-12-18T03:08:52;30.57;;;15.53;;
7166;SDS011;3625;51.762;14.320;2022-12-18T03:11:29;33.83;;;17.10;;
7166;SDS011;3625;51.762;14.320;2022-12-18T03:14:20;27.20;;;15.33;;
7166;SDS011;3625;51.762;14.320;2022-12-18T03:16:54;31.83;;;15.80;;
7166;SDS011;3625;51.762;14.320;2022-12-18T03:19:31;28.90;;;15.60;;
7166;SDS011;3625;51.762;14.320;2022-12-18T03:22:02;34.13;;;15.70;;
7166;SDS011;3625;51.762;14.320;2022-12-18T03:24:46;33.80;;;16.90;;
7166;SDS011;3625;51.762;14.320;2022-12-18T03:27:18;31.37;;;14.70;;
7166;SDS011;3625;51.762;14.320;2022-12-18T03:29:55;38.93;;;17.30;;
7166;SDS011;3625;51.762;14.320;2022-12-18T03:32:38;39.30;;;18.27;;
7166;SDS011;3625;51.762;14.320;2022-12-18T03:35:11;32.00;;;15.63;;
7166;SDS011;3625;51.762;14.320;2022-12-18T03:37:47;33.87;;;14.83;;
7166;SDS011;3625;51.762;14.320;2022-12-18T03:40:16;35.93;;;16.77;;
7166;SDS011;3625;51.762;14.320;2022-12-18T03:42:51;33.00;;;15.83;;
7166;SDS011;3625;51.762;14.320;2022-12-18T03:45:31;31.70;;;15.23;;
7166;SDS011;3625;51.762;14.320;2022-12-18T03:48:06;33.60;;;17.63;;
7166;SDS011;3625;51.762;14.320;2022-12-18T03:50:45;32.13;;;16.90;;
7166;SDS011;3625;51.762;14.320;2022-12-18T03:53:24;31.67;;;15.87;;
7166;SDS011;3625;51.762;14.320;2022-12-18T03:56:04;34.20;;;16.63;;
7166;SDS011;3625;51.762;14.320;2022-12-18T03:58:38;24.10;;;14.23;;
7166;SDS011;3625;51.762;14.320;2022-12-18T04:01:17;28.13;;;14.33;;
7166;SDS011;3625;51.762;14.320;2022-12-18T04:03:54;25.43;;;13.77;;
7166;SDS011;3625;51.762;14.320;2022-12-18T04:06:30;23.37;;;12.67;;
7166;SDS011;3625;51.762;14.320;2022-12-18T04:09:00;25.90;;;14.13;;
7166;SDS011;3625;51.762;14.320;2022-12-18T04:11:31;20.67;;;12.40;;
7166;SDS011;3625;51.762;14.320;2022-12-18T04:14:02;24.50;;;13.13;;
7166;SDS011;3625;51.762;14.320;2022-12-18T04:16:35;22.23;;;14.30;;
7166;SDS011;3625;51.762;14.320;2022-12-18T04:19:06;23.57;;;12.87;;
7166;SDS011;3625;51.762;14.320;2022-12-18T04:21:39;28.67;;;16.10;;
7166;SDS011;3625;51.762;14.320;2022-12-18T04:24:09;28.97;;;14.97;;
7166;SDS011;3625;51.762;14.320;2022-12-18T04:26:44;26.53;;;14.13;;
7166;SDS011;3625;51.762;14.320;2022-12-18T04:29:20;26.20;;;14.47;;
7166;SDS011;3625;51.762;14.320;2022-12-18T04:31:50;26.17;;;13.80;;
7166;SDS011;3625;51.762;14.320;2022-12-18T04:34:20;25.17;;;14.30;;
7166;SDS011;3625;51.762;14.320;2022-12-18T04:36:51;20.87;;;12.13;;
7166;SDS011;3625;51.762;14.320;2022-12-18T04:39:21;25.03;;;14.53;;
7166;SDS011;3625;51.762;14.320;2022-12-18T04:41:53;26.70;;;14.77;;
7166;SDS011;3625;51.762;14.320;2022-12-18T04:44:22;25.60;;;13.87;;
7166;SDS011;3625;51.762;14.320;2022-12-18T04:46:52;18.17;;;11.43;;
7166;SDS011;3625;51.762;14.320;2022-12-18T04:49:22;19.87;;;11.77;;
7166;SDS011;3625;51.762;14.320;2022-12-18T04:51:50;23.67;;;12.27;;
7166;SDS011;3625;51.762;14.320;2022-12-18T04:54:19;20.13;;;12.03;;
7166;SDS011;3625;51.762;14.320;2022-12-18T04:56:48;27.43;;;14.17;;
7166;SDS011;3625;51.762;14.320;2022-12-18T04:59:16;29.27;;;14.97;;
7166;SDS011;3625;51.762;14.320;2022-12-18T05:01:44;25.47;;;14.17;;
7166;SDS011;3625;51.762;14.320;2022-12-18T05:04:14;26.83;;;13.90;;
7166;SDS011;3625;51.762;14.320;2022-12-18T05:06:43;30.00;;;15.03;;
7166;SDS011;3625;51.762;14.320;2022-12-18T05:09:11;19.97;;;11.73;;
7166;SDS011;3625;51.762;14.320;2022-12-18T05:11:40;24.73;;;12.50;;
7166;SDS011;3625;51.762;14.320;2022-12-18T05:14:08;22.70;;;11.87;;
7166;SDS011;3625;51.762;14.320;2022-12-18T05:16:36;25.40;;;12.93;;
7166;SDS011;3625;51.762;14.320;2022-12-18T05:19:05;28.07;;;14.33;;
7166;SDS011;3625;51.762;14.320;2022-12-18T05:21:35;23.07;;;12.67;;
7166;SDS011;3625;51.762;14.320;2022-12-18T05:24:03;24.13;;;14.50;;
7166;SDS011;3625;51.762;14.320;2022-12-18T05:26:32;25.73;;;14.30;;
7166;SDS011;3625;51.762;14.320;2022-12-18T05:29:01;28.87;;;15.87;;
7166;SDS011;3625;51.762;14.320;2022-12-18T05:31:29;23.43;;;13.70;;
7166;SDS011;3625;51.762;14.320;2022-12-18T05:34:04;27.43;;;15.13;;
7166;SDS011;3625;51.762;14.320;2022-12-18T05:36:34;29.53;;;17.00;;
7166;SDS011;3625;51.762;14.320;2022-12-18T05:39:03;27.83;;;13.97;;
7166;SDS011;3625;51.762;14.320;2022-12-18T05:41:31;25.73;;;14.90;;
7166;SDS011;3625;51.762;14.320;2022-12-18T05:44:00;30.40;;;15.53;;
7166;SDS011;3625;51.762;14.320;2022-12-18T05:46:28;24.80;;;13.70;;
7166;SDS011;3625;51.762;14.320;2022-12-18T05:48:58;28.47;;;14.57;;
7166;SDS011;3625;51.762;14.320;2022-12-18T05:51:28;28.20;;;13.53;;
7166;SDS011;3625;51.762;14.320;2022-12-18T05:53:59;25.57;;;14.00;;
7166;SDS011;3625;51.762;14.320;2022-12-18T05:56:27;30.83;;;14.93;;
7166;SDS011;3625;51.762;14.320;2022-12-18T05:58:55;27.40;;;13.67;;
7166;SDS011;3625;51.762;14.320;2022-12-18T06:01:24;19.60;;;12.83;;
7166;SDS011;3625;51.762;14.320;2022-12-18T06:03:54;28.57;;;15.17;;
7166;SDS011;3625;51.762;14.320;2022-12-18T06:06:23;24.00;;;12.80;;
7166;SDS011;3625;51.762;14.320;2022-12-18T06:08:55;24.53;;;13.40;;
7166;SDS011;3625;51.762;14.320;2022-12-18T06:11:25;25.27;;;15.50;;
7166;SDS011;3625;51.762;14.320;2022-12-18T06:13:55;25.53;;;14.73;;
7166;SDS011;3625;51.762;14.320;2022-12-18T06:16:26;29.10;;;16.00;;
7166;SDS011;3625;51.762;14.320;2022-12-18T06:18:56;26.47;;;14.80;;
7166;SDS011;3625;51.762;14.320;2022-12-18T06:21:27;28.20;;;15.63;;
7166;SDS011;3625;51.762;14.320;2022-12-18T06:23:57;26.50;;;14.60;;
7166;SDS011;3625;51.762;14.320;2022-12-18T06:26:28;28.57;;;16.30;;
7166;SDS011;3625;51.762;14.320;2022-12-18T06:28:56;25.03;;;13.83;;
7166;SDS011;3625;51.762;14.320;2022-12-18T06:31:25;25.87;;;14.47;;
7166;SDS011;3625;51.762;14.320;2022-12-18T06:33:54;22.77;;;14.97;;
7166;SDS011;3625;51.762;14.320;2022-12-18T06:36:22;29.20;;;16.23;;
7166;SDS011;3625;51.762;14.320;2022-12-18T06:38:54;26.80;;;14.70;;
7166;SDS011;3625;51.762;14.320;2022-12-18T06:41:23;27.40;;;15.87;;
7166;SDS011;3625;51.762;14.320;2022-12-18T06:43:53;20.47;;;14.10;;
7166;SDS011;3625;51.762;14.320;2022-12-18T06:46:25;22.97;;;14.17;;
7166;SDS011;3625;51.762;14.320;2022-12-18T06:48:54;24.93;;;15.27;;
7166;SDS011;3625;51.762;14.320;2022-12-18T06:51:23;22.40;;;13.37;;
7166;SDS011;3625;51.762;14.320;2022-12-18T06:53:52;22.70;;;13.63;;
7166;SDS011;3625;51.762;14.320;2022-12-18T06:56:20;28.47;;;14.57;;
7166;SDS011;3625;51.762;14.320;2022-12-18T06:58:48;23.80;;;14.10;;
7166;SDS011;3625;51.762;14.320;2022-12-18T07:01:18;23.63;;;14.23;;
7166;SDS011;3625;51.762;14.320;2022-12-18T07:03:47;24.67;;;13.50;;
7166;SDS011;3625;51.762;14.320;2022-12-18T07:06:21;26.40;;;15.50;;
7166;SDS011;3625;51.762;14.320;2022-12-18T07:08:52;23.93;;;13.67;;
7166;SDS011;3625;51.762;14.320;2022-12-18T07:11:22;23.57;;;14.00;;
7166;SDS011;3625;51.762;14.320;2022-12-18T07:13:51;22.23;;;13.30;;
7166;SDS011;3625;51.762;14.320;2022-12-18T07:16:22;23.17;;;14.73;;
7166;SDS011;3625;51.762;14.320;2022-12-18T07:18:51;21.20;;;13.07;;
7166;SDS011;3625;51.762;14.320;2022-12-18T07:21:20;17.60;;;11.83;;
7166;SDS011;3625;51.762;14.320;2022-12-18T07:23:49;23.60;;;13.97;;
7166;SDS011;3625;51.762;14.320;2022-12-18T07:26:19;27.90;;;15.17;;
7166;SDS011;3625;51.762;14.320;2022-12-18T07:28:49;31.53;;;17.07;;
7166;SDS011;3625;51.762;14.320;2022-12-18T07:31:25;23.10;;;13.93;;
7166;SDS011;3625;51.762;14.320;2022-12-18T07:33:55;22.43;;;13.60;;
7166;SDS011;3625;51.762;14.320;2022-12-18T07:36:23;22.30;;;12.13;;
7166;SDS011;3625;51.762;14.320;2022-12-18T07:38:51;26.03;;;14.87;;
7166;SDS011;3625;51.762;14.320;2022-12-18T07:41:20;21.27;;;13.03;;
7166;SDS011;3625;51.762;14.320;2022-12-18T07:43:48;23.67;;;14.13;;
7166;SDS011;3625;51.762;14.320;2022-12-18T07:46:17;20.03;;;12.73;;
7166;SDS011;3625;51.762;14.320;2022-12-18T07:48:47;24.17;;;15.07;;
7166;SDS011;3625;51.762;14.320;2022-12-18T07:51:16;21.20;;;13.30;;
7166;SDS011;3625;51.762;14.320;2022-12-18T07:53:46;22.47;;;12.93;;
7166;SDS011;3625;51.762;14.320;2022-12-18T07:56:18;25.87;;;15.50;;
7166;SDS011;3625;51.762;14.320;2022-12-18T07:58:53;20.53;;;13.50;;
7166;SDS011;3625;51.762;14.320;2022-12-18T08:01:22;20.43;;;14.30;;
7166;SDS011;3625;51.762;14.320;2022-12-18T08:03:52;23.63;;;15.03;;
7166;SDS011;3625;51.762;14.320;2022-12-18T08:06:21;19.90;;;13.90;;
7166;SDS011;3625;51.762;14.320;2022-12-18T08:08:50;20.33;;;14.43;;
7166;SDS011;3625;51.762;14.320;2022-12-18T08:11:20;22.83;;;14.37;;
7166;SDS011;3625;51.762;14.320;2022-12-18T08:13:51;16.93;;;12.37;;
7166;SDS011;3625;51.762;14.320;2022-12-18T08:16:20;18.53;;;12.83;;
7166;SDS011;3625;51.762;14.320;2022-12-18T08:18:51;17.13;;;12.73;;
7166;SDS011;3625;51.762;14.320;2022-12-18T08:21:21;18.80;;;12.13;;
7166;SDS011;3625;51.762;14.320;2022-12-18T08:23:52;13.87;;;11.73;;
7166;SDS011;3625;51.762;14.320;2022-12-18T08:26:24;19.10;;;12.27;;
7166;SDS011;3625;51.762;14.320;2022-12-18T08:28:55;16.27;;;10.97;;
7166;SDS011;3625;51.762;14.320;2022-12-18T08:31:27;17.73;;;12.63;;
7166;SDS011;3625;51.762;14.320;2022-12-18T08:33:58;20.57;;;12.87;;
7166;SDS011;3625;51.762;14.320;2022-12-18T08:36:27;18.33;;;12.60;;
7166;SDS011;3625;51.762;14.320;2022-12-18T08:38:56;18.53;;;12.63;;
7166;SDS011;3625;51.762;14.320;2022-12-18T08:41:25;19.60;;;12.10;;
7166;SDS011;3625;51.762;14.320;2022-12-18T08:43:54;18.63;;;13.33;;
7166;SDS011;3625;51.762;14.320;2022-12-18T08:46:40;23.20;;;14.70;;
7166;SDS011;3625;51.762;14.320;2022-12-18T08:49:12;20.10;;;12.57;;
7166;SDS011;3625;51.762;14.320;2022-12-18T08:51:40;17.97;;;11.63;;
7166;SDS011;3625;51.762;14.320;2022-12-18T08:54:10;19.10;;;13.63;;
7166;SDS011;3625;51.762;14.320;2022-12-18T08:56:40;18.37;;;12.10;;
7166;SDS011;3625;51.762;14.320;2022-12-18T08:59:08;17.37;;;10.97;;
7166;SDS011;3625;51.762;14.320;2022-12-18T09:01:45;18.23;;;11.67;;
7166;SDS011;3625;51.762;14.320;2022-12-18T09:04:16;21.37;;;13.03;;
7166;SDS011;3625;51.762;14.320;2022-12-18T09:06:45;22.53;;;14.97;;
7166;SDS011;3625;51.762;14.320;2022-12-18T09:09:14;18.97;;;12.20;;
7166;SDS011;3625;51.762;14.320;2022-12-18T09:11:43;17.90;;;12.13;;
7166;SDS011;3625;51.762;14.320;2022-12-18T09:14:11;25.10;;;13.23;;
7166;SDS011;3625;51.762;14.320;2022-12-18T09:16:40;18.67;;;12.80;;
7166;SDS011;3625;51.762;14.320;2022-12-18T09:19:09;16.20;;;12.20;;
7166;SDS011;3625;51.762;14.320;2022-12-18T09:21:39;19.27;;;11.50;;
7166;SDS011;3625;51.762;14.320;2022-12-18T09:24:13;19.80;;;12.90;;
7166;SDS011;3625;51.762;14.320;2022-12-18T09:26:43;19.20;;;13.13;;
7166;SDS011;3625;51.762;14.320;2022-12-18T09:29:13;19.50;;;11.90;;
7166;SDS011;3625;51.762;14.320;2022-12-18T09:31:44;20.87;;;14.00;;
7166;SDS011;3625;51.762;14.320;2022-12-18T09:34:13;19.87;;;12.97;;
7166;SDS011;3625;51.762;14.320;2022-12-18T09:36:43;21.07;;;13.80;;
7166;SDS011;3625;51.762;14.320;2022-12-18T09:39:12;20.57;;;13.37;;
7166;SDS011;3625;51.762;14.320;2022-12-18T09:41:43;17.23;;;11.97;;
7166;SDS011;3625;51.762;14.320;2022-12-18T09:44:18;13.87;;;10.97;;
7166;SDS011;3625;51.762;14.320;2022-12-18T09:47:02;15.67;;;10.73;;
7166;SDS011;3625;51.762;14.320;2022-12-18T09:49:39;18.40;;;12.20;;
7166;SDS011;3625;51.762;14.320;2022-12-18T09:52:17;20.13;;;12.13;;
7166;SDS011;3625;51.762;14.320;2022-12-18T09:54:55;15.57;;;11.37;;
7166;SDS011;3625;51.762;14.320;2022-12-18T09:57:29;20.90;;;11.77;;
7166;SDS011;3625;51.762;14.320;2022-12-18T10:00:15;14.23;;;10.67;;
7166;SDS011;3625;51.762;14.320;2022-12-18T10:02:47;16.63;;;11.07;;
7166;SDS011;3625;51.762;14.320;2022-12-18T10:05:20;17.27;;;11.10;;
7166;SDS011;3625;51.762;14.320;2022-12-18T10:08:04;19.20;;;12.37;;
7166;SDS011;3625;51.762;14.320;2022-12-18T10:10:43;16.07;;;12.27;;
7166;SDS011;3625;51.762;14.320;2022-12-18T10:13:20;19.07;;;12.93;;
7166;SDS011;3625;51.762;14.320;2022-12-18T10:16:02;20.47;;;12.07;;
7166;SDS011;3625;51.762;14.320;2022-12-18T10:18:55;19.60;;;13.37;;
7166;SDS011;3625;51.762;14.320;2022-12-18T10:21:53;15.90;;;11.60;;
7166;SDS011;3625;51.762;14.320;2022-12-18T10:24:37;13.43;;;10.77;;
7166;SDS011;3625;51.762;14.320;2022-12-18T10:27:14;18.47;;;12.87;;
7166;SDS011;3625;51.762;14.320;2022-12-18T10:29:45;16.80;;;12.00;;
7166;SDS011;3625;51.762;14.320;2022-12-18T10:32:15;16.40;;;11.93;;
7166;SDS011;3625;51.762;14.320;2022-12-18T10:34:46;17.97;;;12.17;;
7166;SDS011;3625;51.762;14.320;2022-12-18T10:37:25;18.37;;;13.63;;
7166;SDS011;3625;51.762;14.320;2022-12-18T10:40:10;17.07;;;12.00;;
7166;SDS011;3625;51.762;14.320;2022-12-18T10:42:49;15.40;;;11.07;;
7166;SDS011;3625;51.762;14.320;2022-12-18T10:45:32;17.20;;;11.37;;
7166;SDS011;3625;51.762;14.320;2022-12-18T10:48:01;18.23;;;12.10;;
7166;SDS011;3625;51.762;14.320;2022-12-18T10:50:32;13.50;;;11.17;;
7166;SDS011;3625;51.762;14.320;2022-12-18T10:53:24;17.60;;;12.20;;
7166;SDS011;3625;51.762;14.320;2022-12-18T10:55:57;16.23;;;11.63;;
7166;SDS011;3625;51.762;14.320;2022-12-18T10:58:28;21.33;;;13.67;;
7166;SDS011;3625;51.762;14.320;2022-12-18T11:01:04;15.30;;;12.20;;
7166;SDS011;3625;51.762;14.320;2022-12-18T11:03:37;17.30;;;12.50;;
7166;SDS011;3625;51.762;14.320;2022-12-18T11:06:09;15.53;;;11.37;;
7166;SDS011;3625;51.762;14.320;2022-12-18T11:08:41;15.73;;;11.10;;
7166;SDS011;3625;51.762;14.320;2022-12-18T11:11:25;18.37;;;12.90;;
7166;SDS011;3625;51.762;14.320;2022-12-18T11:13:57;18.23;;;12.50;;
7166;SDS011;3625;51.762;14.320;2022-12-18T11:16:31;18.20;;;12.40;;
7166;SDS011;3625;51.762;14.320;2022-12-18T11:19:32;16.03;;;12.37;;
7166;SDS011;3625;51.762;14.320;2022-12-18T11:22:17;17.57;;;11.53;;
7166;SDS011;3625;51.762;14.320;2022-12-18T11:24:52;18.30;;;12.07;;
7166;SDS011;3625;51.762;14.320;2022-12-18T11:27:48;17.70;;;12.90;;
7166;SDS011;3625;51.762;14.320;2022-12-18T11:30:21;17.80;;;12.97;;
7166;SDS011;3625;51.762;14.320;2022-12-18T11:32:54;14.70;;;11.40;;
7166;SDS011;3625;51.762;14.320;2022-12-18T11:35:38;17.83;;;12.20;;
7166;SDS011;3625;51.762;14.320;2022-12-18T11:38:18;15.07;;;12.03;;
7166;SDS011;3625;51.762;14.320;2022-12-18T11:40:53;16.97;;;12.17;;
7166;SDS011;3625;51.762;14.320;2022-12-18T11:43:29;16.73;;;12.90;;
7166;SDS011;3625;51.762;14.320;2022-12-18T11:46:11;16.10;;;11.57;;
7166;SDS011;3625;51.762;14.320;2022-12-18T11:48:48;14.83;;;11.47;;
7166;SDS011;3625;51.762;14.320;2022-12-18T11:51:27;13.80;;;11.20;;
7166;SDS011;3625;51.762;14.320;2022-12-18T11:54:04;14.43;;;11.53;;
7166;SDS011;3625;51.762;14.320;2022-12-18T11:56:42;16.80;;;12.57;;
7166;SDS011;3625;51.762;14.320;2022-12-18T11:59:21;14.60;;;11.97;;
7166;SDS011;3625;51.762;14.320;2022-12-18T12:02:11;13.97;;;10.60;;
7166;SDS011;3625;51.762;14.320;2022-12-18T12:05:14;17.87;;;11.70;;
7166;SDS011;3625;51.762;14.320;2022-12-18T12:08:08;16.57;;;11.17;;
7166;SDS011;3625;51.762;14.320;2022-12-18T12:10:50;16.27;;;12.10;;
7166;SDS011;3625;51.762;14.320;2022-12-18T12:13:35;17.20;;;13.43;;
7166;SDS011;3625;51.762;14.320;2022-12-18T12:16:20;18.30;;;12.90;;
7166;SDS011;3625;51.762;14.320;2022-12-18T12:19:06;18.60;;;13.10;;
7166;SDS011;3625;51.762;14.320;2022-12-18T12:21:56;18.53;;;12.67;;
7166;SDS011;3625;51.762;14.320;2022-12-18T12:24:38;17.27;;;12.13;;
7166;SDS011;3625;51.762;14.320;2022-12-18T12:27:25;14.90;;;11.37;;
7166;SDS011;3625;51.762;14.320;2022-12-18T12:30:07;17.13;;;12.77;;
7166;SDS011;3625;51.762;14.320;2022-12-18T12:32:49;20.53;;;14.30;;
7166;SDS011;3625;51.762;14.320;2022-12-18T12:35:44;19.93;;;13.27;;
7166;SDS011;3625;51.762;14.320;2022-12-18T12:38:23;18.13;;;13.70;;
7166;SDS011;3625;51.762;14.320;2022-12-18T12:41:00;17.03;;;12.67;;
7166;SDS011;3625;51.762;14.320;2022-12-18T12:43:53;18.37;;;13.70;;
7166;SDS011;3625;51.762;14.320;2022-12-18T12:46:26;19.83;;;12.77;;
7166;SDS011;3625;51.762;14.320;2022-12-18T12:49:00;19.43;;;13.20;;
7166;SDS011;3625;51.762;14.320;2022-12-18T12:51:36;17.87;;;13.53;;
7166;SDS011;3625;51.762;14.320;2022-12-18T12:54:11;15.77;;;12.57;;
7166;SDS011;3625;51.762;14.320;2022-12-18T12:56:48;18.57;;;13.57;;
7166;SDS011;3625;51.762;14.320;2022-12-18T12:59:28;22.07;;;13.87;;
7166;SDS011;3625;51.762;14.320;2022-12-18T13:02:12;16.67;;;12.87;;
7166;SDS011;3625;51.762;14.320;2022-12-18T13:04:56;21.43;;;13.47;;
7166;SDS011;3625;51.762;14.320;2022-12-18T13:07:32;18.47;;;13.07;;
7166;SDS011;3625;51.762;14.320;2022-12-18T13:10:13;21.20;;;14.43;;
7166;SDS011;3625;51.762;14.320;2022-12-18T13:12:59;21.07;;;14.23;;
7166;SDS011;3625;51.762;14.320;2022-12-18T13:15:39;19.27;;;14.47;;
7166;SDS011;3625;51.762;14.320;2022-12-18T13:18:16;18.67;;;13.73;;
7166;SDS011;3625;51.762;14.320;2022-12-18T13:20:49;22.33;;;14.10;;
7166;SDS011;3625;51.762;14.320;2022-12-18T13:23:31;20.17;;;13.33;;
7166;SDS011;3625;51.762;14.320;2022-12-18T13:26:29;18.73;;;13.87;;
7166;SDS011;3625;51.762;14.320;2022-12-18T13:29:01;21.90;;;15.67;;
7166;SDS011;3625;51.762;14.320;2022-12-18T13:34:48;21.80;;;14.77;;
7166;SDS011;3625;51.762;14.320;2022-12-18T13:37:44;22.10;;;15.13;;
7166;SDS011;3625;51.762;14.320;2022-12-18T13:43:28;19.67;;;13.87;;
7166;SDS011;3625;51.762;14.320;2022-12-18T13:46:17;20.30;;;13.70;;
7166;SDS011;3625;51.762;14.320;2022-12-18T13:48:53;23.83;;;15.03;;
7166;SDS011;3625;51.762;14.320;2022-12-18T13:51:27;20.43;;;13.40;;
7166;SDS011;3625;51.762;14.320;2022-12-18T13:54:02;20.27;;;14.10;;
7166;SDS011;3625;51.762;14.320;2022-12-18T13:56:46;23.03;;;14.80;;
7166;SDS011;3625;51.762;14.320;2022-12-18T13:59:17;20.63;;;14.20;;
7166;SDS011;3625;51.762;14.320;2022-12-18T14:01:52;23.23;;;15.07;;
7166;SDS011;3625;51.762;14.320;2022-12-18T14:04:25;21.00;;;13.63;;
7166;SDS011;3625;51.762;14.320;2022-12-18T14:06:57;22.53;;;14.73;;
7166;SDS011;3625;51.762;14.320;2022-12-18T14:09:34;20.87;;;13.67;;
7166;SDS011;3625;51.762;14.320;2022-12-18T14:12:06;22.30;;;14.33;;
7166;SDS011;3625;51.762;14.320;2022-12-18T14:15:11;22.60;;;15.00;;
7166;SDS011;3625;51.762;14.320;2022-12-18T14:17:55;23.00;;;14.90;;
7166;SDS011;3625;51.762;14.320;2022-12-18T14:20:29;25.07;;;15.90;;
7166;SDS011;3625;51.762;14.320;2022-12-18T14:23:01;25.60;;;16.40;;
7166;SDS011;3625;51.762;14.320;2022-12-18T14:25:31;24.53;;;15.37;;
7166;SDS011;3625;51.762;14.320;2022-12-18T14:28:02;19.50;;;12.90;;
7166;SDS011;3625;51.762;14.320;2022-12-18T14:30:41;22.83;;;15.37;;
7166;SDS011;3625;51.762;14.320;2022-12-18T14:33:13;19.20;;;13.33;;
7166;SDS011;3625;51.762;14.320;2022-12-18T14:35:52;19.83;;;14.20;;
7166;SDS011;3625;51.762;14.320;2022-12-18T14:38:25;26.77;;;15.63;;
7166;SDS011;3625;51.762;14.320;2022-12-18T14:41:01;21.47;;;13.83;;
7166;SDS011;3625;51.762;14.320;2022-12-18T14:43:32;26.03;;;16.10;;
7166;SDS011;3625;51.762;14.320;2022-12-18T14:46:04;22.73;;;14.73;;
7166;SDS011;3625;51.762;14.320;2022-12-18T14:48:53;27.90;;;16.63;;
7166;SDS011;3625;51.762;14.320;2022-12-18T14:51:23;24.43;;;15.40;;
7166;SDS011;3625;51.762;14.320;2022-12-18T14:53:54;22.77;;;15.30;;
7166;SDS011;3625;51.762;14.320;2022-12-18T14:56:27;25.43;;;16.27;;
7166;SDS011;3625;51.762;14.320;2022-12-18T14:58:59;26.60;;;15.80;;
7166;SDS011;3625;51.762;14.320;2022-12-18T15:01:31;28.37;;;17.00;;
7166;SDS011;3625;51.762;14.320;2022-12-18T15:04:18;24.67;;;14.97;;
7166;SDS011;3625;51.762;14.320;2022-12-18T15:07:04;23.73;;;16.10;;
7166;SDS011;3625;51.762;14.320;2022-12-18T15:09:40;21.73;;;13.73;;
7166;SDS011;3625;51.762;14.320;2022-12-18T15:12:22;30.43;;;18.13;;
7166;SDS011;3625;51.762;14.320;2022-12-18T15:15:03;24.90;;;15.87;;
7166;SDS011;3625;51.762;14.320;2022-12-18T15:17:33;22.10;;;15.00;;
7166;SDS011;3625;51.762;14.320;2022-12-18T15:20:02;27.57;;;17.23;;
7166;SDS011;3625;51.762;14.320;2022-12-18T15:22:38;25.07;;;16.40;;
7166;SDS011;3625;51.762;14.320;2022-12-18T15:25:20;31.50;;;18.27;;